Time;durP1;ratioP1;P1;durP2;ratioP2;P2;SDS_P1;SDS_P2;PMS_P1;PMS_P2;Temp;Humidity;BMP_temperature;BMP_pressure;BME280_temperature;BME280_humidity;BME280_pressure;Samples;Min_cycle;Max_cycle;Signal;HPM_P1;HPM_P2
2021/01/20 00:02:11;;;;;;;2.97;1.63;;;;;;;;;;4968492;28;20047;-87
2021/01/20 00:04:37;;;;;;;3.83;1.90;;;;;;;;;;4962446;28;20487;-87
2021/01/20 00:07:03;;;;;;;3.10;1.50;;;;;;;;;;4978522;28;20047;-88
2021/01/20 00:09:30;;;;;;;2.67;1.58;;;;;;;;;;4978064;28;20055;-88
2021/01/20 00:11:56;;;;;;;4.50;2.47;;;;;;;;;;4974744;28;20051;-88
2021/01/20 00:14:22;;;;;;;2.97;1.70;;;;;;;;;;4958781;29;20404;-88
2021/01/20 00:16:48;;;;;;;3.63;1.50;;;;;;;;;;4960953;28;20124;-88
2021/01/20 00:19:14;;;;;;;2.53;1.48;;;;;;;;;;4966822;28;20535;-88
2021/01/20 00:21:40;;;;;;;3.45;1.52;;;;;;;;;;4958445;29;20078;-88
2021/01/20 00:24:07;;;;;;;3.22;1.33;;;;;;;;;;4958550;29;20050;-88
2021/01/20 00:26:34;;;;;;;4.60;1.50;;;;;;;;;;4958241;29;20051;-88
2021/01/20 00:29:00;;;;;;;2.50;1.30;;;;;;;;;;4958099;29;20055;-88
2021/01/20 00:31:26;;;;;;;3.65;1.73;;;;;;;;;;4956573;28;20051;-88
2021/01/20 00:33:52;;;;;;;2.33;1.10;;;;;;;;;;4957683;29;20062;-88
2021/01/20 00:36:18;;;;;;;2.05;1.13;;;;;;;;;;4958056;29;20138;-88
2021/01/20 00:38:44;;;;;;;2.47;1.02;;;;;;;;;;4957846;29;20511;-87
2021/01/20 00:41:10;;;;;;;2.20;1.20;;;;;;;;;;4957854;29;20043;-88
2021/01/20 00:43:37;;;;;;;2.97;1.13;;;;;;;;;;4957996;29;20085;-87
2021/01/20 00:46:03;;;;;;;3.03;1.30;;;;;;;;;;4957779;29;20062;-88
2021/01/20 00:48:29;;;;;;;3.33;1.30;;;;;;;;;;4957558;29;20133;-87
2021/01/20 00:50:55;;;;;;;2.28;1.10;;;;;;;;;;4957686;29;20051;-88
2021/01/20 00:53:21;;;;;;;2.22;1.20;;;;;;;;;;4957736;29;20055;-87
2021/01/20 00:55:47;;;;;;;1.95;1.13;;;;;;;;;;4958874;29;20055;-87
2021/01/20 00:58:13;;;;;;;2.58;1.10;;;;;;;;;;4957610;29;20515;-88
2021/01/20 01:00:41;;;;;;;3.03;1.48;;;;;;;;;;4958553;29;20055;-87
2021/01/20 01:03:07;;;;;;;2.15;1.13;;;;;;;;;;4957231;29;20106;-87
2021/01/20 01:05:33;;;;;;;3.45;1.00;;;;;;;;;;4957556;29;20083;-88
2021/01/20 01:07:59;;;;;;;1.83;1.00;;;;;;;;;;4957168;29;20058;-87
2021/01/20 01:10:25;;;;;;;1.95;0.80;;;;;;;;;;4957078;29;20047;-87
2021/01/20 01:12:51;;;;;;;1.20;0.80;;;;;;;;;;4957241;29;20044;-87
2021/01/20 01:15:17;;;;;;;1.77;0.90;;;;;;;;;;4955466;28;20055;-88
2021/01/20 01:17:44;;;;;;;2.17;1.08;;;;;;;;;;4956349;29;20062;-87
2021/01/20 01:20:11;;;;;;;1.33;0.80;;;;;;;;;;4956441;29;20063;-87
2021/01/20 01:22:37;;;;;;;1.70;0.90;;;;;;;;;;4956674;29;20051;-87
2021/01/20 01:25:05;;;;;;;3.17;1.00;;;;;;;;;;4956140;29;20055;-88
2021/01/20 01:27:31;;;;;;;1.60;0.85;;;;;;;;;;4955957;29;20058;-87
2021/01/20 01:29:57;;;;;;;2.13;0.70;;;;;;;;;;4956145;29;20047;-87
2021/01/20 01:32:23;;;;;;;1.73;0.77;;;;;;;;;;4956106;29;20058;-87
2021/01/20 01:34:49;;;;;;;0.88;0.60;;;;;;;;;;4956132;29;20137;-87
2021/01/20 01:37:16;;;;;;;1.92;0.98;;;;;;;;;;4956271;29;20043;-87
2021/01/20 01:39:42;;;;;;;1.85;1.02;;;;;;;;;;4956178;29;20404;-88
2021/01/20 01:42:09;;;;;;;2.45;0.80;;;;;;;;;;4955645;28;20086;-88
2021/01/20 01:44:35;;;;;;;1.92;1.00;;;;;;;;;;4955730;29;20054;-88
2021/01/20 01:47:01;;;;;;;2.42;1.15;;;;;;;;;;4956107;29;20403;-88
2021/01/20 01:49:27;;;;;;;1.35;0.70;;;;;;;;;;4956199;29;20047;-88
2021/01/20 01:51:54;;;;;;;2.40;0.80;;;;;;;;;;4956026;29;20057;-88
2021/01/20 01:54:20;;;;;;;1.15;0.77;;;;;;;;;;4956139;29;20448;-88
2021/01/20 01:56:46;;;;;;;1.52;0.63;;;;;;;;;;4955836;29;20094;-87
2021/01/20 01:59:12;;;;;;;1.77;0.85;;;;;;;;;;4956122;29;20047;-87
2021/01/20 02:01:50;;;;;;;2.38;1.23;;;;;;;;;;4956652;29;20047;-87
2021/01/20 02:04:16;;;;;;;1.60;1.08;;;;;;;;;;4979038;28;20050;-83
2021/01/20 02:06:43;;;;;;;1.45;0.90;;;;;;;;;;4981486;28;20047;-82
2021/01/20 02:09:10;;;;;;;1.48;0.73;;;;;;;;;;4980912;28;20039;-83
2021/01/20 02:11:45;;;;;;;2.47;0.73;;;;;;;;;;4981548;28;20042;-83
2021/01/20 02:14:22;;;;;;;0.85;0.60;;;;;;;;;;4982320;28;20053;-83
2021/01/20 02:16:58;;;;;;;1.75;0.80;;;;;;;;;;4981611;28;20049;-83
2021/01/20 02:19:33;;;;;;;1.73;0.90;;;;;;;;;;4981904;28;20046;-83
2021/01/20 02:22:11;;;;;;;1.85;0.77;;;;;;;;;;4981231;28;20038;-83
2021/01/20 02:24:51;;;;;;;2.22;0.90;;;;;;;;;;4981431;28;20097;-82
2021/01/20 02:27:25;;;;;;;1.23;0.90;;;;;;;;;;4982274;28;20123;-83
2021/01/20 02:30:09;;;;;;;1.33;0.60;;;;;;;;;;4982174;28;20070;-82
2021/01/20 02:32:36;;;;;;;1.20;0.60;;;;;;;;;;4981585;28;20046;-83
2021/01/20 02:35:03;;;;;;;1.90;0.75;;;;;;;;;;4980794;28;20522;-83
2021/01/20 02:37:29;;;;;;;1.77;0.73;;;;;;;;;;4980768;28;20044;-83
2021/01/20 02:39:55;;;;;;;1.95;0.88;;;;;;;;;;4981661;28;20039;-83
2021/01/20 02:42:21;;;;;;;1.67;0.77;;;;;;;;;;4964036;28;20043;-83
2021/01/20 02:44:47;;;;;;;1.42;0.80;;;;;;;;;;4981120;28;20383;-83
2021/01/20 02:47:14;;;;;;;1.60;0.70;;;;;;;;;;4962838;28;20050;-83
2021/01/20 02:49:41;;;;;;;1.00;0.70;;;;;;;;;;4981642;28;20039;-83
2021/01/20 02:52:12;;;;;;;1.40;0.68;;;;;;;;;;4980888;28;20046;-82
2021/01/20 02:54:39;;;;;;;1.73;0.82;;;;;;;;;;4980078;28;20039;-83
2021/01/20 02:57:06;;;;;;;2.63;0.60;;;;;;;;;;4980382;28;20046;-83
2021/01/20 02:59:32;;;;;;;1.83;0.80;;;;;;;;;;4964028;28;20050;-83
2021/01/20 03:02:01;;;;;;;1.27;0.77;;;;;;;;;;4981103;28;20427;-83
2021/01/20 03:04:29;;;;;;;1.38;0.75;;;;;;;;;;4980618;28;20043;-83
2021/01/20 03:06:56;;;;;;;2.08;0.80;;;;;;;;;;4980904;28;20055;-83
2021/01/20 03:09:22;;;;;;;1.77;0.93;;;;;;;;;;4981211;28;20047;-83
2021/01/20 03:11:49;;;;;;;1.23;0.70;;;;;;;;;;4947803;28;20550;-83
2021/01/20 03:14:15;;;;;;;0.88;0.60;;;;;;;;;;4980934;28;20046;-83
2021/01/20 03:16:41;;;;;;;0.63;0.45;;;;;;;;;;4981676;28;20047;-82
2021/01/20 03:19:08;;;;;;;1.05;0.43;;;;;;;;;;4981316;28;20106;-83
2021/01/20 03:21:35;;;;;;;1.42;0.90;;;;;;;;;;4964560;28;20047;-83
2021/01/20 03:24:01;;;;;;;1.00;0.55;;;;;;;;;;4981580;28;20046;-83
2021/01/20 03:26:27;;;;;;;1.10;0.57;;;;;;;;;;4981287;28;20074;-83
2021/01/20 03:28:53;;;;;;;2.97;0.70;;;;;;;;;;4963427;28;20043;-83
2021/01/20 03:31:18;;;;;;;1.38;0.80;;;;;;;;;;4964133;28;20125;-83
2021/01/20 03:33:44;;;;;;;1.42;0.80;;;;;;;;;;4981300;28;20046;-83
2021/01/20 03:36:10;;;;;;;1.45;0.60;;;;;;;;;;4982051;28;20050;-84
2021/01/20 03:38:37;;;;;;;1.60;0.52;;;;;;;;;;4981094;28;20306;-84
2021/01/20 03:41:04;;;;;;;1.90;1.00;;;;;;;;;;4981882;28;20502;-83
2021/01/20 03:43:30;;;;;;;1.10;0.70;;;;;;;;;;4982447;28;20091;-84
2021/01/20 03:45:56;;;;;;;1.00;0.55;;;;;;;;;;4982938;28;20042;-83
2021/01/20 03:48:22;;;;;;;1.85;0.73;;;;;;;;;;4981245;28;20081;-83
2021/01/20 03:50:48;;;;;;;1.52;0.95;;;;;;;;;;4965604;28;20062;-82
2021/01/20 03:53:14;;;;;;;1.25;0.70;;;;;;;;;;4989585;28;20039;-82
2021/01/20 03:55:40;;;;;;;2.80;0.93;;;;;;;;;;4972107;28;20050;-82
2021/01/20 03:58:07;;;;;;;3.35;1.00;;;;;;;;;;4981785;28;20057;-82
2021/01/20 04:00:32;;;;;;;1.83;0.90;;;;;;;;;;4978873;28;20056;-83
2021/01/20 04:02:58;;;;;;;2.35;0.95;;;;;;;;;;4957529;28;20487;-82
2021/01/20 04:05:24;;;;;;;1.38;0.60;;;;;;;;;;4977245;28;20168;-82
2021/01/20 04:07:50;;;;;;;1.85;0.77;;;;;;;;;;4978634;28;20047;-82
2021/01/20 04:10:16;;;;;;;2.40;0.88;;;;;;;;;;4979067;28;20125;-82
2021/01/20 04:12:43;;;;;;;1.08;0.63;;;;;;;;;;4961656;28;20051;-82
2021/01/20 04:15:10;;;;;;;1.63;0.73;;;;;;;;;;4978675;28;20502;-82
2021/01/20 04:17:37;;;;;;;2.10;0.60;;;;;;;;;;4979308;28;20046;-82
2021/01/20 04:20:05;;;;;;;1.73;0.80;;;;;;;;;;4979099;28;20046;-82
2021/01/20 04:22:31;;;;;;;1.58;0.70;;;;;;;;;;4979702;28;20051;-82
2021/01/20 04:24:57;;;;;;;1.02;0.45;;;;;;;;;;4978726;28;20054;-82
2021/01/20 04:27:23;;;;;;;3.60;1.40;;;;;;;;;;4979322;28;20039;-82
2021/01/20 04:29:49;;;;;;;4.28;2.33;;;;;;;;;;4980307;28;20079;-82
2021/01/20 04:32:15;;;;;;;7.00;2.92;;;;;;;;;;4982121;28;20039;-83
2021/01/20 04:34:41;;;;;;;9.68;5.88;;;;;;;;;;4979035;28;20127;-82
2021/01/20 04:37:07;;;;;;;5.35;3.15;;;;;;;;;;4961964;28;20039;-82
2021/01/20 04:39:33;;;;;;;7.53;4.72;;;;;;;;;;4978452;28;20043;-82
2021/01/20 04:41:59;;;;;;;8.45;5.22;;;;;;;;;;4962042;28;20046;-82
2021/01/20 04:44:26;;;;;;;8.40;4.32;;;;;;;;;;4978735;28;20043;-82
2021/01/20 04:46:53;;;;;;;8.30;4.53;;;;;;;;;;4978645;28;20057;-82
2021/01/20 04:49:19;;;;;;;5.82;2.78;;;;;;;;;;4978393;28;20093;-82
2021/01/20 04:51:47;;;;;;;4.93;2.50;;;;;;;;;;4978862;28;20098;-82
2021/01/20 04:54:13;;;;;;;4.05;1.90;;;;;;;;;;4961261;28;20046;-82
2021/01/20 04:56:40;;;;;;;2.80;1.65;;;;;;;;;;4979345;28;20050;-82
2021/01/20 04:59:06;;;;;;;2.67;1.75;;;;;;;;;;4977939;28;20042;-82
2021/01/20 05:01:32;;;;;;;1.58;0.73;;;;;;;;;;4977853;28;20047;-82
2021/01/20 05:04:01;;;;;;;2.10;1.30;;;;;;;;;;4978969;28;20051;-82
2021/01/20 05:06:27;;;;;;;2.95;0.93;;;;;;;;;;4960888;28;20047;-82
2021/01/20 05:08:53;;;;;;;2.60;0.68;;;;;;;;;;4960187;28;20047;-82
2021/01/20 05:11:20;;;;;;;1.33;0.77;;;;;;;;;;4978085;28;20057;-82
2021/01/20 05:13:46;;;;;;;1.55;1.00;;;;;;;;;;4977312;28;20047;-82
2021/01/20 05:16:25;;;;;;;0.80;0.70;;;;;;;;;;4978506;28;20043;-82
2021/01/20 05:18:51;;;;;;;1.13;0.63;;;;;;;;;;4978783;28;20043;-82
2021/01/20 05:21:19;;;;;;;2.28;0.70;;;;;;;;;;4962723;28;20121;-82
2021/01/20 05:23:45;;;;;;;1.40;0.70;;;;;;;;;;4977873;28;20046;-82
2021/01/20 05:26:11;;;;;;;1.23;0.60;;;;;;;;;;4978390;28;20089;-82
2021/01/20 05:28:37;;;;;;;1.58;0.60;;;;;;;;;;4978155;28;20092;-82
2021/01/20 05:31:04;;;;;;;0.80;0.60;;;;;;;;;;4977337;28;20480;-82
2021/01/20 05:33:38;;;;;;;1.30;0.68;;;;;;;;;;4977712;28;20110;-82
2021/01/20 05:36:08;;;;;;;1.50;0.60;;;;;;;;;;4977572;28;20055;-82
2021/01/20 05:38:37;;;;;;;2.75;0.80;;;;;;;;;;4977103;28;20047;-83
2021/01/20 05:41:19;;;;;;;0.50;0.35;;;;;;;;;;4977734;28;20053;-82
2021/01/20 05:43:46;;;;;;;1.17;0.57;;;;;;;;;;4978093;28;20053;-82
2021/01/20 05:46:12;;;;;;;2.05;0.60;;;;;;;;;;4975986;28;20044;-82
2021/01/20 05:48:45;;;;;;;1.48;0.60;;;;;;;;;;4976052;28;20503;-82
2021/01/20 05:51:11;;;;;;;1.30;0.52;;;;;;;;;;4976287;28;20070;-83
2021/01/20 05:53:48;;;;;;;1.92;0.82;;;;;;;;;;4942802;28;20458;-82
2021/01/20 05:56:15;;;;;;;1.13;0.68;;;;;;;;;;4969484;28;20044;-82
2021/01/20 05:58:41;;;;;;;1.02;0.57;;;;;;;;;;4959159;29;20039;-82
2021/01/20 06:01:08;;;;;;;1.98;0.93;;;;;;;;;;4958398;29;20043;-82
2021/01/20 06:03:35;;;;;;;1.52;0.82;;;;;;;;;;4957839;29;20043;-81
2021/01/20 06:06:03;;;;;;;0.68;0.50;;;;;;;;;;4959662;29;20119;-82
2021/01/20 06:08:31;;;;;;;1.08;0.60;;;;;;;;;;4959134;28;20042;-82
2021/01/20 06:10:58;;;;;;;1.90;0.88;;;;;;;;;;4969622;28;20043;-83
2021/01/20 06:13:24;;;;;;;0.77;0.60;;;;;;;;;;4962678;28;20062;-83
2021/01/20 06:15:51;;;;;;;2.92;0.95;;;;;;;;;;4960558;28;20046;-82
2021/01/20 06:18:17;;;;;;;1.05;0.70;;;;;;;;;;4976992;28;20053;-83
2021/01/20 06:20:45;;;;;;;1.95;0.70;;;;;;;;;;4976798;28;20055;-82
2021/01/20 06:23:12;;;;;;;1.63;1.02;;;;;;;;;;4944669;29;20047;-83
2021/01/20 06:25:38;;;;;;;4.43;1.88;;;;;;;;;;4957513;29;20472;-83
2021/01/20 06:28:07;;;;;;;4.07;1.38;;;;;;;;;;4957181;28;20091;-82
2021/01/20 06:30:37;;;;;;;5.38;2.38;;;;;;;;;;4957361;29;20049;-81
2021/01/20 06:33:06;;;;;;;4.68;2.50;;;;;;;;;;4958327;29;20078;-82
2021/01/20 06:35:41;;;;;;;8.23;2.75;;;;;;;;;;4957438;29;20044;-81
2021/01/20 06:38:33;;;;;;;6.80;2.90;;;;;;;;;;4958447;29;20054;-81
2021/01/20 06:40:59;;;;;;;5.55;3.20;;;;;;;;;;4957138;29;20472;-81
2021/01/20 06:43:38;;;;;;;5.38;3.05;;;;;;;;;;4957669;29;20086;-81
2021/01/20 06:46:25;;;;;;;3.97;1.92;;;;;;;;;;4956874;29;20515;-81
2021/01/20 06:49:15;;;;;;;3.53;2.00;;;;;;;;;;4957740;29;20054;-81
2021/01/20 06:51:45;;;;;;;3.83;1.20;;;;;;;;;;4955999;28;20050;-81
2021/01/20 06:54:15;;;;;;;2.03;1.17;;;;;;;;;;4956778;28;20054;-81
2021/01/20 06:56:43;;;;;;;1.52;0.90;;;;;;;;;;4975156;28;20057;-81
2021/01/20 06:59:26;;;;;;;1.65;1.00;;;;;;;;;;4976527;28;20043;-81
2021/01/20 07:02:11;;;;;;;1.90;0.90;;;;;;;;;;4966172;28;20039;-81
2021/01/20 07:04:53;;;;;;;2.33;1.05;;;;;;;;;;4968679;28;20101;-81
2021/01/20 07:07:49;;;;;;;3.40;0.90;;;;;;;;;;4963528;28;20404;-82
2021/01/20 07:10:15;;;;;;;2.08;0.70;;;;;;;;;;4954778;28;20047;-81
2021/01/20 07:13:20;;;;;;;1.30;0.70;;;;;;;;;;4964103;28;20071;-81
2021/01/20 07:15:49;;;;;;;1.30;0.70;;;;;;;;;;4961765;28;20042;-82
2021/01/20 07:18:16;;;;;;;3.50;0.90;;;;;;;;;;4959556;28;20055;-81
2021/01/20 07:20:43;;;;;;;1.25;0.75;;;;;;;;;;4956900;28;20043;-81
2021/01/20 07:23:10;;;;;;;3.80;1.08;;;;;;;;;;4971742;28;20062;-82
2021/01/20 07:25:36;;;;;;;1.67;0.88;;;;;;;;;;4963751;28;20043;-82
2021/01/20 07:28:02;;;;;;;2.20;0.85;;;;;;;;;;4964764;28;20051;-81
2021/01/20 07:30:28;;;;;;;1.60;0.73;;;;;;;;;;4973446;28;20051;-83
2021/01/20 07:32:56;;;;;;;1.42;0.80;;;;;;;;;;4975329;28;20372;-81
2021/01/20 07:35:24;;;;;;;2.15;0.88;;;;;;;;;;4972292;28;20055;-81
2021/01/20 07:38:02;;;;;;;2.55;0.95;;;;;;;;;;4977805;28;20546;-80
2021/01/20 07:40:29;;;;;;;1.83;0.85;;;;;;;;;;4976493;28;20039;-81
2021/01/20 07:42:55;;;;;;;1.92;0.85;;;;;;;;;;4980391;28;20065;-82
2021/01/20 07:45:30;;;;;;;1.70;0.80;;;;;;;;;;4982549;28;20047;-83
2021/01/20 07:47:57;;;;;;;85.25;37.83;;;;;;;;;;4969612;28;20059;-82
2021/01/20 07:50:39;;;;;;;95.55;43.88;;;;;;;;;;4973136;28;20051;-82
2021/01/20 07:53:05;;;;;;;44.13;21.42;;;;;;;;;;4968479;28;20046;-83
2021/01/20 07:55:31;;;;;;;18.88;8.50;;;;;;;;;;4971008;28;20129;-80
2021/01/20 07:57:59;;;;;;;42.13;16.67;;;;;;;;;;4968817;28;20045;-80
2021/01/20 08:00:25;;;;;;;45.90;20.98;;;;;;;;;;4969432;28;20476;-80
2021/01/20 08:02:51;;;;;;;43.50;17.92;;;;;;;;;;4967320;28;20071;-82
2021/01/20 08:05:18;;;;;;;37.53;17.55;;;;;;;;;;4965651;28;20047;-81
2021/01/20 08:07:44;;;;;;;41.25;20.83;;;;;;;;;;4969603;28;20042;-81
2021/01/20 08:10:20;;;;;;;35.22;18.10;;;;;;;;;;4963790;28;20043;-85
2021/01/20 08:12:47;;;;;;;27.30;13.35;;;;;;;;;;4956848;29;20051;-81
2021/01/20 08:15:15;;;;;;;32.05;15.90;;;;;;;;;;4964903;28;20046;-82
2021/01/20 08:17:42;;;;;;;24.77;12.90;;;;;;;;;;4976943;28;20042;-81
2021/01/20 08:20:10;;;;;;;15.77;9.13;;;;;;;;;;4976325;28;20051;-82
2021/01/20 08:22:39;;;;;;;11.23;6.15;;;;;;;;;;4975888;28;20042;-80
2021/01/20 08:25:08;;;;;;;7.65;3.78;;;;;;;;;;4974643;28;20047;-80
2021/01/20 08:27:37;;;;;;;8.30;4.95;;;;;;;;;;4975694;28;20051;-80
2021/01/20 08:30:05;;;;;;;8.40;5.30;;;;;;;;;;4972378;28;20038;-82
2021/01/20 08:32:31;;;;;;;11.43;5.65;;;;;;;;;;4961241;28;20047;-83
2021/01/20 08:34:58;;;;;;;8.18;5.15;;;;;;;;;;4963460;28;20138;-81
2021/01/20 08:37:33;;;;;;;8.70;5.95;;;;;;;;;;4968834;28;20452;-82
2021/01/20 08:40:02;;;;;;;7.88;6.03;;;;;;;;;;4967705;28;20507;-84
2021/01/20 08:42:38;;;;;;;8.73;6.30;;;;;;;;;;4968631;28;20043;-83
2021/01/20 08:45:15;;;;;;;8.65;5.22;;;;;;;;;;4968563;28;20487;-84
2021/01/20 08:47:47;;;;;;;5.00;3.20;;;;;;;;;;4967630;28;20054;-83
2021/01/20 08:50:14;;;;;;;2.90;1.70;;;;;;;;;;4966579;28;20051;-81
2021/01/20 08:52:49;;;;;;;4.35;2.10;;;;;;;;;;4966633;28;20475;-82
2021/01/20 08:55:27;;;;;;;7.03;2.92;;;;;;;;;;4965501;28;20049;-83
2021/01/20 08:58:21;;;;;;;4.35;2.72;;;;;;;;;;4948032;28;20476;-82
2021/01/20 09:00:48;;;;;;;3.10;1.70;;;;;;;;;;4966679;28;20046;-81
2021/01/20 09:03:16;;;;;;;2.83;1.50;;;;;;;;;;4964489;28;20058;-82
2021/01/20 09:05:43;;;;;;;4.05;2.20;;;;;;;;;;4967945;28;20056;-83
2021/01/20 09:08:09;;;;;;;2.72;1.30;;;;;;;;;;4968734;28;20045;-83
2021/01/20 09:10:36;;;;;;;5.68;2.60;;;;;;;;;;4966755;28;20480;-83
2021/01/20 09:13:03;;;;;;;3.40;1.63;;;;;;;;;;4966620;28;20053;-84
2021/01/20 09:15:29;;;;;;;3.67;2.22;;;;;;;;;;4967880;28;20059;-84
2021/01/20 09:17:55;;;;;;;4.95;2.72;;;;;;;;;;4967346;28;20070;-85
2021/01/20 09:20:21;;;;;;;4.40;2.53;;;;;;;;;;4966702;28;20054;-84
2021/01/20 09:22:47;;;;;;;7.53;3.50;;;;;;;;;;4965498;28;20384;-84
2021/01/20 09:25:13;;;;;;;9.07;5.35;;;;;;;;;;4967573;28;20051;-83
2021/01/20 09:27:40;;;;;;;5.45;3.25;;;;;;;;;;4948495;28;20475;-83
2021/01/20 09:30:08;;;;;;;5.20;2.67;;;;;;;;;;4940804;28;20043;-83
2021/01/20 09:32:37;;;;;;;5.60;2.45;;;;;;;;;;4966519;28;20050;-83
2021/01/20 09:35:09;;;;;;;3.40;1.75;;;;;;;;;;4962933;28;20070;-85
2021/01/20 09:37:35;;;;;;;25.80;5.25;;;;;;;;;;4963711;28;20038;-85
2021/01/20 09:40:02;;;;;;;23.20;4.95;;;;;;;;;;4955562;28;20443;-84
2021/01/20 09:42:28;;;;;;;16.77;4.75;;;;;;;;;;4978553;28;20051;-86
2021/01/20 09:44:55;;;;;;;12.98;4.78;;;;;;;;;;4947544;28;20039;-84
2021/01/20 09:47:21;;;;;;;11.52;4.47;;;;;;;;;;4969013;28;20039;-84
2021/01/20 09:49:47;;;;;;;10.57;4.78;;;;;;;;;;4952224;28;20043;-83
2021/01/20 09:52:15;;;;;;;21.50;5.30;;;;;;;;;;4960072;28;20042;-85
2021/01/20 09:54:42;;;;;;;17.17;6.18;;;;;;;;;;4966239;28;20368;-85
2021/01/20 09:57:08;;;;;;;9.05;4.07;;;;;;;;;;4977813;28;20047;-84
2021/01/20 09:59:35;;;;;;;5.20;2.47;;;;;;;;;;4973587;28;20051;-84
2021/01/20 10:02:02;;;;;;;4.20;1.80;;;;;;;;;;4957779;28;20047;-87
2021/01/20 10:04:28;;;;;;;4.25;2.10;;;;;;;;;;4967733;28;20047;-84
2021/01/20 10:06:53;;;;;;;4.13;2.28;;;;;;;;;;4975907;28;20042;-85
2021/01/20 10:09:20;;;;;;;3.05;1.70;;;;;;;;;;4972684;28;20045;-82
2021/01/20 10:11:49;;;;;;;4.32;1.85;;;;;;;;;;4964101;28;20050;-82
2021/01/20 10:14:16;;;;;;;3.80;1.90;;;;;;;;;;4968827;28;20126;-85
2021/01/20 10:16:46;;;;;;;3.47;1.30;;;;;;;;;;4953799;28;20063;-84
2021/01/20 10:19:13;;;;;;;4.72;1.50;;;;;;;;;;4964968;28;20086;-83
2021/01/20 10:21:39;;;;;;;3.13;1.58;;;;;;;;;;4968549;28;20046;-82
2021/01/20 10:24:07;;;;;;;2.55;1.27;;;;;;;;;;4979340;28;20094;-82
2021/01/20 10:26:33;;;;;;;3.38;1.73;;;;;;;;;;4978674;28;20047;-82
2021/01/20 10:28:59;;;;;;;5.03;1.77;;;;;;;;;;4977050;28;20391;-82
2021/01/20 10:31:28;;;;;;;3.97;1.38;;;;;;;;;;4978534;28;20050;-83
2021/01/20 10:33:54;;;;;;;2.53;1.33;;;;;;;;;;4980323;28;20050;-85
2021/01/20 10:36:21;;;;;;;2.78;1.30;;;;;;;;;;4975228;28;20394;-83
2021/01/20 10:38:47;;;;;;;3.28;1.20;;;;;;;;;;4978257;28;20054;-83
2021/01/20 10:41:13;;;;;;;2.78;1.10;;;;;;;;;;4947127;28;20050;-84
2021/01/20 10:43:39;;;;;;;8.75;2.90;;;;;;;;;;4976793;28;20060;-83
2021/01/20 10:46:05;;;;;;;2.13;1.10;;;;;;;;;;4960935;28;20053;-84
2021/01/20 10:48:32;;;;;;;4.28;1.63;;;;;;;;;;4976750;28;20042;-83
2021/01/20 10:50:57;;;;;;;1.35;0.82;;;;;;;;;;4977632;28;20069;-83
2021/01/20 10:53:24;;;;;;;2.78;1.48;;;;;;;;;;4977821;28;20471;-83
2021/01/20 10:55:51;;;;;;;3.75;1.48;;;;;;;;;;4977932;28;20042;-82
2021/01/20 10:58:17;;;;;;;2.88;1.20;;;;;;;;;;4966451;28;20047;-86
2021/01/20 11:00:46;;;;;;;3.80;1.85;;;;;;;;;;4947283;28;20494;-83
2021/01/20 11:03:13;;;;;;;7.50;3.40;;;;;;;;;;4977732;28;20058;-83
2021/01/20 11:05:39;;;;;;;2.13;1.30;;;;;;;;;;4968705;28;20034;-82
2021/01/20 11:08:07;;;;;;;4.05;1.58;;;;;;;;;;4964244;28;20488;-81
2021/01/20 11:10:34;;;;;;;2.15;0.98;;;;;;;;;;4959756;28;20392;-83
2021/01/20 11:13:07;;;;;;;2.25;1.02;;;;;;;;;;4965960;28;20042;-82
2021/01/20 11:15:35;;;;;;;3.35;1.75;;;;;;;;;;4965085;28;20043;-82
2021/01/20 11:18:01;;;;;;;3.15;1.10;;;;;;;;;;4965442;28;20444;-81
2021/01/20 11:20:27;;;;;;;2.78;0.82;;;;;;;;;;4963635;28;20043;-83
2021/01/20 11:22:53;;;;;;;1.75;0.90;;;;;;;;;;4951481;28;20046;-83
2021/01/20 11:25:19;;;;;;;2.45;1.23;;;;;;;;;;4960646;28;20054;-83
2021/01/20 11:27:46;;;;;;;2.90;1.00;;;;;;;;;;4959517;28;20038;-83
2021/01/20 11:30:13;;;;;;;2.65;1.40;;;;;;;;;;4959728;28;20051;-83
2021/01/20 11:32:39;;;;;;;7.65;2.00;;;;;;;;;;4971566;28;20046;-82
2021/01/20 11:35:06;;;;;;;2.85;1.40;;;;;;;;;;4977347;28;20079;-82
2021/01/20 11:37:32;;;;;;;3.25;1.58;;;;;;;;;;4976493;28;20121;-86
2021/01/20 11:40:03;;;;;;;8.02;3.58;;;;;;;;;;4968510;28;20472;-86
2021/01/20 11:42:29;;;;;;;5.60;2.78;;;;;;;;;;4947821;28;20070;-83
2021/01/20 11:44:56;;;;;;;2.53;1.35;;;;;;;;;;4964425;28;20039;-83
2021/01/20 11:47:22;;;;;;;3.75;1.58;;;;;;;;;;4963772;28;20121;-82
2021/01/20 11:49:48;;;;;;;2.28;0.95;;;;;;;;;;4964752;28;20058;-85
2021/01/20 11:52:14;;;;;;;1.60;0.98;;;;;;;;;;4966191;28;20051;-81
2021/01/20 11:54:40;;;;;;;2.85;1.20;;;;;;;;;;4966004;28;20047;-83
2021/01/20 11:57:06;;;;;;;3.92;1.00;;;;;;;;;;4972014;28;20134;-84
2021/01/20 11:59:32;;;;;;;1.75;0.98;;;;;;;;;;4973663;28;20062;-83
2021/01/20 12:01:59;;;;;;;3.97;1.70;;;;;;;;;;4957361;28;20576;-81
2021/01/20 12:04:25;;;;;;;4.38;2.03;;;;;;;;;;4976729;28;20042;-82
2021/01/20 12:06:51;;;;;;;2.75;1.27;;;;;;;;;;4979183;28;20043;-85
2021/01/20 12:09:17;;;;;;;2.25;1.00;;;;;;;;;;4976471;28;20091;-82
2021/01/20 12:11:43;;;;;;;2.15;1.10;;;;;;;;;;4953072;28;20097;-82
2021/01/20 12:14:09;;;;;;;2.28;1.10;;;;;;;;;;4966161;28;20343;-87
2021/01/20 12:16:36;;;;;;;5.45;1.40;;;;;;;;;;4959782;29;20043;-85
2021/01/20 12:19:03;;;;;;;3.40;1.20;;;;;;;;;;4977231;28;20046;-85
2021/01/20 12:21:29;;;;;;;5.38;1.65;;;;;;;;;;4978710;28;20043;-84
2021/01/20 12:23:54;;;;;;;5.50;1.85;;;;;;;;;;4978447;28;20053;-86
2021/01/20 12:26:21;;;;;;;3.05;1.63;;;;;;;;;;4979271;28;20070;-83
2021/01/20 12:28:47;;;;;;;3.88;1.60;;;;;;;;;;4981933;28;20480;-84
2021/01/20 12:31:13;;;;;;;7.07;1.52;;;;;;;;;;4963466;28;20134;-86
2021/01/20 12:33:39;;;;;;;2.85;1.42;;;;;;;;;;4962589;29;20133;-84
2021/01/20 12:36:06;;;;;;;3.72;1.38;;;;;;;;;;4963733;28;20098;-84
2021/01/20 12:38:32;;;;;;;4.40;1.48;;;;;;;;;;4973796;28;20399;-84
2021/01/20 12:40:58;;;;;;;2.97;1.30;;;;;;;;;;4975168;28;20047;-85
2021/01/20 12:43:24;;;;;;;4.22;2.55;;;;;;;;;;4971832;28;20050;-86
2021/01/20 12:45:50;;;;;;;5.20;3.05;;;;;;;;;;4975913;28;20043;-85
2021/01/20 12:48:16;;;;;;;53.53;24.75;;;;;;;;;;4969531;28;20047;-84
2021/01/20 12:50:42;;;;;;;16.70;8.07;;;;;;;;;;4971776;28;20441;-82
2021/01/20 12:53:09;;;;;;;87.60;41.65;;;;;;;;;;4971338;28;20054;-84
2021/01/20 12:55:35;;;;;;;59.55;25.95;;;;;;;;;;4971349;28;20043;-85
2021/01/20 12:58:01;;;;;;;55.15;27.55;;;;;;;;;;4978635;28;20043;-85
2021/01/20 13:00:29;;;;;;;30.80;14.63;;;;;;;;;;4990226;28;20067;-82
2021/01/20 13:03:01;;;;;;;13.15;6.13;;;;;;;;;;4985094;28;20042;-84
2021/01/20 13:05:30;;;;;;;8.02;3.50;;;;;;;;;;4990860;28;20062;-83
2021/01/20 13:07:58;;;;;;;6.82;2.20;;;;;;;;;;4977568;28;20074;-84
2021/01/20 13:10:30;;;;;;;3.92;1.98;;;;;;;;;;4960695;28;20043;-83
2021/01/20 13:13:04;;;;;;;12.48;3.25;;;;;;;;;;4979072;28;20035;-83
2021/01/20 13:15:34;;;;;;;9.18;2.00;;;;;;;;;;4985243;28;20043;-87
2021/01/20 13:18:03;;;;;;;10.18;2.88;;;;;;;;;;4985529;28;20038;-83
2021/01/20 13:20:30;;;;;;;3.88;1.40;;;;;;;;;;4987687;28;20390;-87
2021/01/20 13:22:58;;;;;;;5.93;2.28;;;;;;;;;;4987132;28;20027;-86
2021/01/20 13:25:25;;;;;;;4.13;1.70;;;;;;;;;;4982589;28;20043;-83
2021/01/20 13:27:53;;;;;;;4.20;1.77;;;;;;;;;;4985291;28;20034;-86
2021/01/20 13:30:21;;;;;;;3.75;1.50;;;;;;;;;;4990055;28;20047;-85
2021/01/20 13:32:49;;;;;;;3.30;1.60;;;;;;;;;;4985722;28;20124;-82
2021/01/20 13:35:17;;;;;;;4.03;1.50;;;;;;;;;;4987079;28;20065;-84
2021/01/20 13:37:44;;;;;;;4.03;1.50;;;;;;;;;;4981671;28;20070;-81
2021/01/20 13:40:12;;;;;;;2.85;1.65;;;;;;;;;;4989391;28;20098;-86
2021/01/20 13:42:39;;;;;;;3.08;1.40;;;;;;;;;;4985253;28;20039;-83
2021/01/20 13:45:08;;;;;;;7.45;2.72;;;;;;;;;;4987533;28;20039;-85
2021/01/20 13:47:34;;;;;;;8.30;5.25;;;;;;;;;;4977751;28;20046;-82
2021/01/20 13:50:00;;;;;;;4.45;2.05;;;;;;;;;;4979097;28;20050;-82
2021/01/20 13:52:26;;;;;;;3.50;1.83;;;;;;;;;;4977424;28;20376;-82
2021/01/20 13:54:53;;;;;;;3.55;1.85;;;;;;;;;;4958379;28;20130;-82
2021/01/20 13:57:19;;;;;;;4.28;1.77;;;;;;;;;;4960430;28;20424;-83
2021/01/20 13:59:45;;;;;;;3.40;1.55;;;;;;;;;;4967908;28;20046;-87
2021/01/20 14:02:12;;;;;;;4.10;2.00;;;;;;;;;;4964314;28;20419;-82
2021/01/20 14:04:39;;;;;;;4.28;1.58;;;;;;;;;;4965879;28;20051;-83
2021/01/20 14:07:05;;;;;;;2.75;1.38;;;;;;;;;;4966354;28;20563;-85
2021/01/20 14:09:31;;;;;;;2.72;1.60;;;;;;;;;;4968356;28;20407;-82
2021/01/20 14:11:57;;;;;;;4.00;1.85;;;;;;;;;;4968014;28;20298;-83
2021/01/20 14:14:24;;;;;;;4.00;2.17;;;;;;;;;;4967272;28;20050;-83
2021/01/20 14:16:50;;;;;;;3.38;1.67;;;;;;;;;;4966774;28;20050;-82
2021/01/20 14:19:17;;;;;;;4.18;2.03;;;;;;;;;;4967285;28;20043;-83
2021/01/20 14:21:43;;;;;;;3.17;1.75;;;;;;;;;;4969803;28;20050;-82
2021/01/20 14:24:09;;;;;;;5.93;2.00;;;;;;;;;;4965797;28;20133;-84
2021/01/20 14:26:35;;;;;;;3.30;1.80;;;;;;;;;;4969565;28;20051;-82
2021/01/20 14:29:01;;;;;;;3.35;1.63;;;;;;;;;;4972565;28;20519;-82
2021/01/20 14:31:27;;;;;;;3.63;1.70;;;;;;;;;;4966295;28;20066;-83
2021/01/20 14:33:53;;;;;;;5.55;2.00;;;;;;;;;;4968679;28;20461;-83
2021/01/20 14:36:20;;;;;;;3.78;2.05;;;;;;;;;;4978769;28;20045;-82
2021/01/20 14:38:46;;;;;;;5.40;1.90;;;;;;;;;;4979487;28;20038;-82
2021/01/20 14:41:15;;;;;;;4.57;2.60;;;;;;;;;;4979608;28;20054;-82
2021/01/20 14:43:41;;;;;;;5.95;3.35;;;;;;;;;;4977842;28;20471;-82
2021/01/20 14:46:07;;;;;;;4.50;2.90;;;;;;;;;;4977472;28;20475;-82